Terminal Aerodrome Forecast
Issued by NWS

Home | Current Version | Previous Version | Text Only | Print | Product List | Glossary On
Versions: 1 2 3 4 5 6 7 8 9 10 11 12 13 14 15 16
346
FTUS43 KDLH 202328
TAFHYR
TAF
KHYR 202328Z 2100/2124 17011KT P6SM BKN200 WS020/18040KT
     FM210900 17009KT P6SM VCSH OVC040 WS020/20040KT
     FM211400 17011G19KT P6SM VCSH OVC025
     FM211800 18014G22KT P6SM VCSH OVC025
     FM212200 18012G20KT P6SM -SHRA OVC015=

USA.gov is the U.S. government's official web portal to all federal, state and local government web resources and services.